sensor_id;sensor_type;location;lat;lon;timestamp;pressure;altitude;pressure_sealevel;temperature;humidity
41686;BME280;27370;42.764;23.432;2023-04-03T00:01:23;94968.88;;;2.42;100.00
41686;BME280;27370;42.764;23.432;2023-04-03T00:03:49;94966.59;;;2.44;100.00
41686;BME280;27370;42.764;23.432;2023-04-03T00:06:15;94956.28;;;2.46;100.00
41686;BME280;27370;42.764;23.432;2023-04-03T00:08:40;94957.47;;;2.49;100.00
41686;BME280;27370;42.764;23.432;2023-04-03T00:11:06;94966.41;;;2.71;100.00
41686;BME280;27370;42.764;23.432;2023-04-03T00:13:32;94966.47;;;2.74;100.00
41686;BME280;27370;42.764;23.432;2023-04-03T00:15:58;94970.97;;;2.67;100.00
41686;BME280;27370;42.764;23.432;2023-04-03T00:18:23;94973.44;;;2.42;100.00
41686;BME280;27370;42.764;23.432;2023-04-03T00:20:49;94972.09;;;2.66;100.00
41686;BME280;27370;42.764;23.432;2023-04-03T00:23:15;94965.34;;;2.31;100.00
41686;BME280;27370;42.764;23.432;2023-04-03T00:25:40;94957.66;;;2.26;100.00
41686;BME280;27370;42.764;23.432;2023-04-03T00:28:06;94949.19;;;2.17;100.00
41686;BME280;27370;42.764;23.432;2023-04-03T00:30:32;94952.19;;;2.12;100.00
41686;BME280;27370;42.764;23.432;2023-04-03T00:32:58;94960.53;;;2.07;100.00
41686;BME280;27370;42.764;23.432;2023-04-03T00:35:24;94957.47;;;2.05;100.00
41686;BME280;27370;42.764;23.432;2023-04-03T00:37:52;94956.00;;;2.11;100.00
41686;BME280;27370;42.764;23.432;2023-04-03T00:40:18;94965.63;;;2.23;100.00
41686;BME280;27370;42.764;23.432;2023-04-03T00:42:47;94964.50;;;2.24;100.00
41686;BME280;27370;42.764;23.432;2023-04-03T00:47:45;94967.47;;;2.15;100.00
41686;BME280;27370;42.764;23.432;2023-04-03T00:50:11;94971.28;;;2.14;100.00
41686;BME280;27370;42.764;23.432;2023-04-03T00:52:37;94962.53;;;1.80;100.00
41686;BME280;27370;42.764;23.432;2023-04-03T00:55:05;94963.25;;;1.77;100.00
41686;BME280;27370;42.764;23.432;2023-04-03T00:57:32;94968.84;;;1.98;100.00
41686;BME280;27370;42.764;23.432;2023-04-03T01:00:04;94961.13;;;1.90;100.00
41686;BME280;27370;42.764;23.432;2023-04-03T01:02:31;94976.41;;;1.93;100.00
41686;BME280;27370;42.764;23.432;2023-04-03T01:04:57;94975.97;;;1.87;100.00
41686;BME280;27370;42.764;23.432;2023-04-03T01:07:26;94970.19;;;1.81;100.00
41686;BME280;27370;42.764;23.432;2023-04-03T01:09:57;94981.66;;;1.82;100.00
41686;BME280;27370;42.764;23.432;2023-04-03T01:12:26;94968.56;;;1.73;100.00
41686;BME280;27370;42.764;23.432;2023-04-03T01:14:55;94963.44;;;1.58;100.00
41686;BME280;27370;42.764;23.432;2023-04-03T01:17:42;94970.31;;;1.59;100.00
41686;BME280;27370;42.764;23.432;2023-04-03T01:25:26;94979.41;;;1.88;100.00
41686;BME280;27370;42.764;23.432;2023-04-03T01:27:53;94979.38;;;1.84;100.00
41686;BME280;27370;42.764;23.432;2023-04-03T01:30:21;94979.69;;;1.79;100.00
41686;BME280;27370;42.764;23.432;2023-04-03T01:32:48;94983.44;;;1.74;100.00
41686;BME280;27370;42.764;23.432;2023-04-03T01:35:14;94976.22;;;1.75;100.00
41686;BME280;27370;42.764;23.432;2023-04-03T01:37:40;94975.19;;;1.53;100.00
41686;BME280;27370;42.764;23.432;2023-04-03T01:40:06;94979.09;;;1.59;100.00
41686;BME280;27370;42.764;23.432;2023-04-03T01:42:33;94966.84;;;1.58;100.00
41686;BME280;27370;42.764;23.432;2023-04-03T01:44:58;94970.66;;;1.57;100.00
41686;BME280;27370;42.764;23.432;2023-04-03T01:47:24;94970.94;;;1.48;100.00
41686;BME280;27370;42.764;23.432;2023-04-03T01:49:49;94977.41;;;1.47;100.00
41686;BME280;27370;42.764;23.432;2023-04-03T01:52:15;94969.22;;;1.33;100.00
41686;BME280;27370;42.764;23.432;2023-04-03T01:54:40;94981.59;;;1.15;100.00
41686;BME280;27370;42.764;23.432;2023-04-03T01:57:06;94990.44;;;1.22;100.00
41686;BME280;27370;42.764;23.432;2023-04-03T01:59:31;94980.66;;;1.04;100.00
41686;BME280;27370;42.764;23.432;2023-04-03T02:01:57;94982.34;;;1.15;100.00
41686;BME280;27370;42.764;23.432;2023-04-03T02:04:22;94981.34;;;1.27;100.00
41686;BME280;27370;42.764;23.432;2023-04-03T02:06:48;94990.34;;;1.15;100.00
41686;BME280;27370;42.764;23.432;2023-04-03T02:09:13;94978.03;;;1.07;100.00
41686;BME280;27370;42.764;23.432;2023-04-03T02:11:39;94983.28;;;1.30;100.00
41686;BME280;27370;42.764;23.432;2023-04-03T02:14:05;94979.72;;;1.19;100.00
41686;BME280;27370;42.764;23.432;2023-04-03T02:16:30;94973.22;;;1.16;100.00
41686;BME280;27370;42.764;23.432;2023-04-03T02:18:56;94967.41;;;1.11;100.00
41686;BME280;27370;42.764;23.432;2023-04-03T02:21:22;94958.59;;;1.07;100.00
41686;BME280;27370;42.764;23.432;2023-04-03T02:23:47;94972.91;;;1.21;100.00
41686;BME280;27370;42.764;23.432;2023-04-03T02:26:15;94969.09;;;1.22;100.00
41686;BME280;27370;42.764;23.432;2023-04-03T02:28:44;94962.91;;;1.45;100.00
41686;BME280;27370;42.764;23.432;2023-04-03T02:31:10;94947.84;;;1.60;100.00
41686;BME280;27370;42.764;23.432;2023-04-03T02:33:38;94950.63;;;1.37;100.00
41686;BME280;27370;42.764;23.432;2023-04-03T02:36:07;94953.50;;;1.25;100.00
41686;BME280;27370;42.764;23.432;2023-04-03T02:38:33;94946.84;;;1.11;100.00
41686;BME280;27370;42.764;23.432;2023-04-03T02:41:04;94940.47;;;1.16;100.00
41686;BME280;27370;42.764;23.432;2023-04-03T02:43:31;94955.81;;;0.96;100.00
41686;BME280;27370;42.764;23.432;2023-04-03T02:45:57;94955.59;;;0.82;100.00
41686;BME280;27370;42.764;23.432;2023-04-03T02:48:24;94948.41;;;0.59;100.00
41686;BME280;27370;42.764;23.432;2023-04-03T02:50:50;94960.19;;;0.58;100.00
41686;BME280;27370;42.764;23.432;2023-04-03T02:53:15;94960.44;;;0.73;100.00
41686;BME280;27370;42.764;23.432;2023-04-03T02:55:41;94968.78;;;0.98;100.00
41686;BME280;27370;42.764;23.432;2023-04-03T02:58:07;94964.00;;;0.84;100.00
41686;BME280;27370;42.764;23.432;2023-04-03T03:00:34;94962.81;;;0.81;100.00
41686;BME280;27370;42.764;23.432;2023-04-03T03:02:59;94953.03;;;0.89;100.00
41686;BME280;27370;42.764;23.432;2023-04-03T03:05:25;94965.28;;;0.94;100.00
41686;BME280;27370;42.764;23.432;2023-04-03T03:07:51;94954.88;;;0.58;100.00
41686;BME280;27370;42.764;23.432;2023-04-03T03:10:17;94947.38;;;0.68;100.00
41686;BME280;27370;42.764;23.432;2023-04-03T03:12:44;94959.84;;;0.86;100.00
41686;BME280;27370;42.764;23.432;2023-04-03T03:15:10;94957.88;;;1.10;100.00
41686;BME280;27370;42.764;23.432;2023-04-03T03:17:35;94948.13;;;1.21;100.00
41686;BME280;27370;42.764;23.432;2023-04-03T03:20:03;94942.28;;;1.12;100.00
41686;BME280;27370;42.764;23.432;2023-04-03T03:22:29;94951.94;;;1.20;100.00
41686;BME280;27370;42.764;23.432;2023-04-03T03:24:54;94938.81;;;1.08;100.00
41686;BME280;27370;42.764;23.432;2023-04-03T03:27:20;94947.28;;;1.13;100.00
41686;BME280;27370;42.764;23.432;2023-04-03T03:29:46;94944.56;;;1.10;100.00
41686;BME280;27370;42.764;23.432;2023-04-03T03:32:12;94945.63;;;1.05;100.00
41686;BME280;27370;42.764;23.432;2023-04-03T03:34:38;94928.19;;;1.11;100.00
41686;BME280;27370;42.764;23.432;2023-04-03T03:37:04;94927.50;;;1.14;100.00
41686;BME280;27370;42.764;23.432;2023-04-03T03:39:30;94930.16;;;1.14;100.00
41686;BME280;27370;42.764;23.432;2023-04-03T03:41:56;94940.81;;;1.14;100.00
41686;BME280;27370;42.764;23.432;2023-04-03T03:44:22;94930.50;;;1.13;100.00
41686;BME280;27370;42.764;23.432;2023-04-03T03:46:47;94948.94;;;1.25;100.00
41686;BME280;27370;42.764;23.432;2023-04-03T03:49:13;94955.03;;;1.26;100.00
41686;BME280;27370;42.764;23.432;2023-04-03T03:51:39;94953.09;;;1.22;100.00
41686;BME280;27370;42.764;23.432;2023-04-03T03:54:06;94960.56;;;1.40;100.00
41686;BME280;27370;42.764;23.432;2023-04-03T03:56:33;94960.28;;;1.48;100.00
41686;BME280;27370;42.764;23.432;2023-04-03T03:58:59;94956.41;;;1.42;100.00
41686;BME280;27370;42.764;23.432;2023-04-03T04:01:25;94955.91;;;1.33;100.00
41686;BME280;27370;42.764;23.432;2023-04-03T04:03:51;94950.03;;;1.20;100.00
41686;BME280;27370;42.764;23.432;2023-04-03T04:06:20;94952.47;;;1.03;100.00
41686;BME280;27370;42.764;23.432;2023-04-03T04:08:47;94944.41;;;0.69;100.00
41686;BME280;27370;42.764;23.432;2023-04-03T04:11:13;94946.88;;;0.85;100.00
41686;BME280;27370;42.764;23.432;2023-04-03T04:13:40;94949.50;;;0.81;100.00
41686;BME280;27370;42.764;23.432;2023-04-03T04:16:07;94944.53;;;0.80;100.00
41686;BME280;27370;42.764;23.432;2023-04-03T04:18:33;94937.63;;;0.75;100.00
41686;BME280;27370;42.764;23.432;2023-04-03T04:20:59;94932.75;;;0.81;100.00
41686;BME280;27370;42.764;23.432;2023-04-03T04:23:24;94951.66;;;0.99;100.00
41686;BME280;27370;42.764;23.432;2023-04-03T04:25:51;94953.78;;;0.89;100.00
41686;BME280;27370;42.764;23.432;2023-04-03T04:28:18;94957.81;;;0.76;100.00
41686;BME280;27370;42.764;23.432;2023-04-03T04:30:45;94969.00;;;0.89;100.00
41686;BME280;27370;42.764;23.432;2023-04-03T04:33:11;94979.16;;;1.06;100.00
41686;BME280;27370;42.764;23.432;2023-04-03T04:35:42;94974.19;;;1.35;100.00
41686;BME280;27370;42.764;23.432;2023-04-03T04:38:08;94967.56;;;1.21;100.00
41686;BME280;27370;42.764;23.432;2023-04-03T04:40:34;94977.84;;;1.19;100.00
41686;BME280;27370;42.764;23.432;2023-04-03T04:43:00;94975.81;;;1.39;100.00
41686;BME280;27370;42.764;23.432;2023-04-03T04:45:25;94973.72;;;1.26;100.00
41686;BME280;27370;42.764;23.432;2023-04-03T04:47:51;94987.50;;;1.31;100.00
41686;BME280;27370;42.764;23.432;2023-04-03T04:50:18;94979.97;;;1.37;100.00
41686;BME280;27370;42.764;23.432;2023-04-03T04:52:45;94988.59;;;1.27;100.00
41686;BME280;27370;42.764;23.432;2023-04-03T04:55:10;94982.44;;;1.22;100.00
41686;BME280;27370;42.764;23.432;2023-04-03T04:57:36;94997.19;;;1.43;100.00
41686;BME280;27370;42.764;23.432;2023-04-03T05:00:04;94993.09;;;1.52;100.00
41686;BME280;27370;42.764;23.432;2023-04-03T05:02:30;94999.38;;;1.67;100.00
41686;BME280;27370;42.764;23.432;2023-04-03T05:04:56;94992.16;;;1.68;100.00
41686;BME280;27370;42.764;23.432;2023-04-03T05:07:26;95006.06;;;1.84;100.00
41686;BME280;27370;42.764;23.432;2023-04-03T05:09:52;94993.75;;;1.76;100.00
41686;BME280;27370;42.764;23.432;2023-04-03T05:12:17;95001.41;;;1.77;100.00
41686;BME280;27370;42.764;23.432;2023-04-03T05:14:49;95004.66;;;1.97;100.00
41686;BME280;27370;42.764;23.432;2023-04-03T05:17:15;95002.53;;;2.10;100.00
41686;BME280;27370;42.764;23.432;2023-04-03T05:19:46;95004.16;;;2.22;100.00
41686;BME280;27370;42.764;23.432;2023-04-03T05:22:12;95015.69;;;2.29;100.00
41686;BME280;27370;42.764;23.432;2023-04-03T05:24:37;95036.34;;;2.32;100.00
41686;BME280;27370;42.764;23.432;2023-04-03T05:27:03;95028.28;;;2.29;100.00
41686;BME280;27370;42.764;23.432;2023-04-03T05:29:32;95030.97;;;2.29;100.00
41686;BME280;27370;42.764;23.432;2023-04-03T05:31:59;95032.63;;;2.44;100.00
41686;BME280;27370;42.764;23.432;2023-04-03T05:34:25;95019.75;;;2.53;100.00
41686;BME280;27370;42.764;23.432;2023-04-03T05:36:52;95027.63;;;2.87;100.00
41686;BME280;27370;42.764;23.432;2023-04-03T05:39:18;95028.09;;;2.96;100.00
41686;BME280;27370;42.764;23.432;2023-04-03T05:41:46;95021.13;;;2.84;100.00
41686;BME280;27370;42.764;23.432;2023-04-03T05:44:11;95016.50;;;2.78;100.00
41686;BME280;27370;42.764;23.432;2023-04-03T05:46:37;95014.25;;;2.83;100.00
41686;BME280;27370;42.764;23.432;2023-04-03T05:49:05;95015.53;;;3.03;100.00
41686;BME280;27370;42.764;23.432;2023-04-03T05:51:39;95020.91;;;3.07;100.00
41686;BME280;27370;42.764;23.432;2023-04-03T05:54:31;95011.91;;;3.33;100.00
41686;BME280;27370;42.764;23.432;2023-04-03T05:57:26;95001.53;;;3.24;100.00
41686;BME280;27370;42.764;23.432;2023-04-03T05:59:51;94998.50;;;3.29;100.00
41686;BME280;27370;42.764;23.432;2023-04-03T06:02:20;95005.59;;;3.69;100.00
41686;BME280;27370;42.764;23.432;2023-04-03T06:04:47;95000.56;;;3.57;100.00
41686;BME280;27370;42.764;23.432;2023-04-03T06:07:19;94998.69;;;3.65;100.00
41686;BME280;27370;42.764;23.432;2023-04-03T06:09:49;94983.03;;;3.71;100.00
41686;BME280;27370;42.764;23.432;2023-04-03T06:12:16;94988.47;;;3.88;100.00
41686;BME280;27370;42.764;23.432;2023-04-03T06:14:43;94985.03;;;4.02;100.00
41686;BME280;27370;42.764;23.432;2023-04-03T06:17:08;94974.34;;;4.06;100.00
41686;BME280;27370;42.764;23.432;2023-04-03T06:19:34;94971.31;;;4.18;100.00
41686;BME280;27370;42.764;23.432;2023-04-03T06:22:00;94967.50;;;4.44;100.00
41686;BME280;27370;42.764;23.432;2023-04-03T06:24:26;94964.47;;;4.56;100.00
41686;BME280;27370;42.764;23.432;2023-04-03T06:26:52;94961.38;;;4.89;100.00
41686;BME280;27370;42.764;23.432;2023-04-03T06:29:19;94949.44;;;5.19;100.00
41686;BME280;27370;42.764;23.432;2023-04-03T06:31:45;94957.81;;;5.53;100.00
41686;BME280;27370;42.764;23.432;2023-04-03T06:34:11;94954.69;;;5.69;100.00
41686;BME280;27370;42.764;23.432;2023-04-03T06:36:37;94968.41;;;5.96;100.00
41686;BME280;27370;42.764;23.432;2023-04-03T06:39:03;94984.31;;;6.31;100.00
41686;BME280;27370;42.764;23.432;2023-04-03T06:41:29;94968.06;;;6.53;100.00
41686;BME280;27370;42.764;23.432;2023-04-03T06:43:55;94990.59;;;6.69;100.00
41686;BME280;27370;42.764;23.432;2023-04-03T06:46:25;94994.38;;;6.83;100.00
41686;BME280;27370;42.764;23.432;2023-04-03T06:48:51;95008.88;;;6.92;100.00
41686;BME280;27370;42.764;23.432;2023-04-03T06:51:27;95008.88;;;6.92;100.00
41686;BME280;27370;42.764;23.432;2023-04-03T06:53:55;94997.09;;;6.75;100.00
41686;BME280;27370;42.764;23.432;2023-04-03T06:56:21;94994.44;;;6.72;100.00
41686;BME280;27370;42.764;23.432;2023-04-03T06:58:47;94999.41;;;6.73;100.00
41686;BME280;27370;42.764;23.432;2023-04-03T07:01:14;95001.56;;;6.93;100.00
41686;BME280;27370;42.764;23.432;2023-04-03T07:03:40;95005.00;;;6.97;100.00
41686;BME280;27370;42.764;23.432;2023-04-03T07:06:06;95018.41;;;7.04;100.00
41686;BME280;27370;42.764;23.432;2023-04-03T07:08:33;95026.09;;;7.05;100.00
41686;BME280;27370;42.764;23.432;2023-04-03T07:10:59;95018.22;;;7.25;100.00
41686;BME280;27370;42.764;23.432;2023-04-03T07:13:25;95034.00;;;7.23;100.00
41686;BME280;27370;42.764;23.432;2023-04-03T07:15:52;95026.16;;;7.40;100.00
41686;BME280;27370;42.764;23.432;2023-04-03T07:18:18;95022.75;;;7.73;100.00
41686;BME280;27370;42.764;23.432;2023-04-03T07:20:43;95024.66;;;7.76;100.00
41686;BME280;27370;42.764;23.432;2023-04-03T07:23:09;95019.25;;;7.76;100.00
41686;BME280;27370;42.764;23.432;2023-04-03T07:25:36;95014.59;;;7.80;100.00
41686;BME280;27370;42.764;23.432;2023-04-03T07:28:01;95006.41;;;8.21;100.00
41686;BME280;27370;42.764;23.432;2023-04-03T07:30:27;95013.91;;;7.73;100.00
41686;BME280;27370;42.764;23.432;2023-04-03T07:32:52;95003.63;;;7.23;100.00
41686;BME280;27370;42.764;23.432;2023-04-03T07:35:18;95000.31;;;7.46;100.00
41686;BME280;27370;42.764;23.432;2023-04-03T07:37:44;95000.34;;;7.80;100.00
41686;BME280;27370;42.764;23.432;2023-04-03T07:40:10;94996.47;;;8.15;100.00
41686;BME280;27370;42.764;23.432;2023-04-03T07:42:36;94988.94;;;8.60;100.00
41686;BME280;27370;42.764;23.432;2023-04-03T07:45:03;94993.41;;;8.13;100.00
41686;BME280;27370;42.764;23.432;2023-04-03T07:47:29;94989.53;;;8.14;100.00
41686;BME280;27370;42.764;23.432;2023-04-03T07:49:56;94977.19;;;8.47;100.00
41686;BME280;27370;42.764;23.432;2023-04-03T07:52:23;94972.03;;;9.06;100.00
41686;BME280;27370;42.764;23.432;2023-04-03T07:54:48;94957.22;;;9.14;100.00
41686;BME280;27370;42.764;23.432;2023-04-03T07:57:14;94952.59;;;8.92;100.00
41686;BME280;27370;42.764;23.432;2023-04-03T07:59:39;94953.56;;;9.01;100.00
41686;BME280;27370;42.764;23.432;2023-04-03T08:02:11;94952.03;;;9.24;100.00
41686;BME280;27370;42.764;23.432;2023-04-03T08:04:37;94952.72;;;9.08;100.00
41686;BME280;27370;42.764;23.432;2023-04-03T08:07:03;94953.09;;;9.30;100.00
41686;BME280;27370;42.764;23.432;2023-04-03T08:09:28;94936.69;;;9.60;100.00
41686;BME280;27370;42.764;23.432;2023-04-03T08:11:54;94936.91;;;9.69;100.00
41686;BME280;27370;42.764;23.432;2023-04-03T08:14:20;94933.97;;;9.40;100.00
41686;BME280;27370;42.764;23.432;2023-04-03T08:16:47;94939.41;;;9.60;100.00
41686;BME280;27370;42.764;23.432;2023-04-03T08:19:14;94931.44;;;9.53;100.00
41686;BME280;27370;42.764;23.432;2023-04-03T08:21:41;94925.03;;;9.43;100.00
41686;BME280;27370;42.764;23.432;2023-04-03T08:24:09;94929.00;;;9.39;100.00
41686;BME280;27370;42.764;23.432;2023-04-03T08:26:35;94926.38;;;9.55;100.00
41686;BME280;27370;42.764;23.432;2023-04-03T08:29:01;94921.25;;;9.80;100.00
41686;BME280;27370;42.764;23.432;2023-04-03T08:31:27;94929.28;;;9.64;100.00
41686;BME280;27370;42.764;23.432;2023-04-03T08:33:52;94925.66;;;9.91;100.00
41686;BME280;27370;42.764;23.432;2023-04-03T08:36:22;94924.03;;;10.13;100.00
41686;BME280;27370;42.764;23.432;2023-04-03T08:38:49;94931.38;;;10.12;100.00
41686;BME280;27370;42.764;23.432;2023-04-03T08:41:44;94931.78;;;10.31;100.00
41686;BME280;27370;42.764;23.432;2023-04-03T08:50:05;94918.53;;;10.53;100.00
41686;BME280;27370;42.764;23.432;2023-04-03T08:55:21;94916.66;;;10.82;100.00
41686;BME280;27370;42.764;23.432;2023-04-03T08:57:48;94922.75;;;11.02;100.00
41686;BME280;27370;42.764;23.432;2023-04-03T09:00:20;94914.72;;;10.83;100.00
41686;BME280;27370;42.764;23.432;2023-04-03T09:02:52;94922.41;;;10.84;100.00
41686;BME280;27370;42.764;23.432;2023-04-03T09:05:20;94923.59;;;10.99;100.00
41686;BME280;27370;42.764;23.432;2023-04-03T09:08:30;94912.44;;;10.97;100.00
41686;BME280;27370;42.764;23.432;2023-04-03T09:11:12;94899.50;;;11.34;100.00
41686;BME280;27370;42.764;23.432;2023-04-03T09:14:01;94899.13;;;11.03;100.00
41686;BME280;27370;42.764;23.432;2023-04-03T09:19:05;94889.06;;;11.61;100.00
41686;BME280;27370;42.764;23.432;2023-04-03T09:21:38;94892.75;;;11.68;100.00
41686;BME280;27370;42.764;23.432;2023-04-03T09:24:05;94889.28;;;11.54;100.00
41686;BME280;27370;42.764;23.432;2023-04-03T09:26:48;94878.94;;;11.78;100.00
41686;BME280;27370;42.764;23.432;2023-04-03T09:29:21;94878.44;;;11.54;100.00
41686;BME280;27370;42.764;23.432;2023-04-03T09:31:52;94881.22;;;11.92;100.00
41686;BME280;27370;42.764;23.432;2023-04-03T09:34:31;94873.78;;;11.55;100.00
41686;BME280;27370;42.764;23.432;2023-04-03T09:36:59;94865.88;;;11.73;100.00
41686;BME280;27370;42.764;23.432;2023-04-03T09:39:47;94858.38;;;11.64;100.00
41686;BME280;27370;42.764;23.432;2023-04-03T09:42:22;94858.66;;;11.41;100.00
41686;BME280;27370;42.764;23.432;2023-04-03T09:44:56;94856.50;;;11.90;100.00
41686;BME280;27370;42.764;23.432;2023-04-03T09:47:24;94858.91;;;11.72;100.00
41686;BME280;27370;42.764;23.432;2023-04-03T09:49:49;94846.88;;;11.60;100.00
41686;BME280;27370;42.764;23.432;2023-04-03T09:52:22;94846.09;;;12.02;100.00
41686;BME280;27370;42.764;23.432;2023-04-03T09:54:48;94849.13;;;12.16;100.00
41686;BME280;27370;42.764;23.432;2023-04-03T09:57:13;94831.44;;;11.86;100.00
41686;BME280;27370;42.764;23.432;2023-04-03T09:59:44;94839.91;;;12.01;100.00
41686;BME280;27370;42.764;23.432;2023-04-03T10:02:24;94832.94;;;12.38;100.00
41686;BME280;27370;42.764;23.432;2023-04-03T10:04:53;94833.63;;;12.77;100.00
41686;BME280;27370;42.764;23.432;2023-04-03T10:07:30;94827.44;;;12.76;100.00
41686;BME280;27370;42.764;23.432;2023-04-03T10:09:58;94828.66;;;12.63;100.00
41686;BME280;27370;42.764;23.432;2023-04-03T10:12:24;94827.97;;;13.06;100.00
41686;BME280;27370;42.764;23.432;2023-04-03T10:17:49;94819.78;;;12.49;100.00
41686;BME280;27370;42.764;23.432;2023-04-03T10:28:51;94823.69;;;12.48;100.00
41686;BME280;27370;42.764;23.432;2023-04-03T10:31:22;94813.16;;;12.38;100.00
41686;BME280;27370;42.764;23.432;2023-04-03T10:36:38;94816.47;;;12.67;100.00
41686;BME280;27370;42.764;23.432;2023-04-03T10:39:44;94808.50;;;12.38;100.00
41686;BME280;27370;42.764;23.432;2023-04-03T10:45:26;94802.34;;;12.12;100.00
41686;BME280;27370;42.764;23.432;2023-04-03T10:48:38;94793.78;;;12.01;100.00
41686;BME280;27370;42.764;23.432;2023-04-03T10:54:00;94787.91;;;11.90;100.00
41686;BME280;27370;42.764;23.432;2023-04-03T10:59:30;94782.47;;;11.90;100.00
41686;BME280;27370;42.764;23.432;2023-04-03T11:02:05;94778.91;;;12.06;100.00
41686;BME280;27370;42.764;23.432;2023-04-03T11:04:34;94784.75;;;12.17;100.00
41686;BME280;27370;42.764;23.432;2023-04-03T11:07:08;94781.25;;;12.29;100.00
41686;BME280;27370;42.764;23.432;2023-04-03T11:09:37;94784.31;;;12.18;100.00
41686;BME280;27370;42.764;23.432;2023-04-03T11:12:12;94781.81;;;12.11;100.00
41686;BME280;27370;42.764;23.432;2023-04-03T11:14:38;94784.88;;;12.01;100.00
41686;BME280;27370;42.764;23.432;2023-04-03T11:19:57;94783.56;;;11.25;100.00
41686;BME280;27370;42.764;23.432;2023-04-03T11:22:29;94787.84;;;10.97;100.00
41686;BME280;27370;42.764;23.432;2023-04-03T11:25:08;94796.50;;;10.92;100.00
41686;BME280;27370;42.764;23.432;2023-04-03T11:27:44;94789.50;;;10.79;100.00
41686;BME280;27370;42.764;23.432;2023-04-03T11:30:25;94791.84;;;10.48;100.00
41686;BME280;27370;42.764;23.432;2023-04-03T11:35:25;94790.22;;;10.34;100.00
41686;BME280;27370;42.764;23.432;2023-04-03T11:37:52;94799.63;;;10.29;100.00
41686;BME280;27370;42.764;23.432;2023-04-03T11:40:22;94784.13;;;10.13;100.00
41686;BME280;27370;42.764;23.432;2023-04-03T11:42:52;94783.72;;;9.99;100.00
41686;BME280;27370;42.764;23.432;2023-04-03T12:03:30;94794.66;;;9.75;100.00
41686;BME280;27370;42.764;23.432;2023-04-03T12:13:38;94800.06;;;9.75;100.00
41686;BME280;27370;42.764;23.432;2023-04-03T12:16:06;94809.00;;;9.72;100.00
41686;BME280;27370;42.764;23.432;2023-04-03T12:21:16;94801.59;;;9.40;100.00
41686;BME280;27370;42.764;23.432;2023-04-03T12:32:24;94788.13;;;9.57;100.00
41686;BME280;27370;42.764;23.432;2023-04-03T12:35:20;94780.44;;;9.55;100.00
41686;BME280;27370;42.764;23.432;2023-04-03T12:48:31;94774.91;;;9.06;100.00
41686;BME280;27370;42.764;23.432;2023-04-03T12:50:59;94775.25;;;9.08;100.00
41686;BME280;27370;42.764;23.432;2023-04-03T12:53:29;94762.69;;;8.98;100.00
41686;BME280;27370;42.764;23.432;2023-04-03T12:56:19;94755.66;;;8.84;100.00
41686;BME280;27370;42.764;23.432;2023-04-03T12:58:49;94749.00;;;8.69;100.00
41686;BME280;27370;42.764;23.432;2023-04-03T13:01:17;94745.84;;;8.51;100.00
41686;BME280;27370;42.764;23.432;2023-04-03T13:03:45;94744.56;;;8.36;100.00
41686;BME280;27370;42.764;23.432;2023-04-03T13:08:56;94743.16;;;8.27;100.00
41686;BME280;27370;42.764;23.432;2023-04-03T13:11:24;94737.13;;;8.20;100.00
41686;BME280;27370;42.764;23.432;2023-04-03T13:13:59;94739.06;;;8.19;100.00
41686;BME280;27370;42.764;23.432;2023-04-03T13:16:25;94750.63;;;8.20;100.00
41686;BME280;27370;42.764;23.432;2023-04-03T13:18:54;94749.19;;;8.12;100.00
41686;BME280;27370;42.764;23.432;2023-04-03T13:21:24;94752.84;;;8.02;100.00
41686;BME280;27370;42.764;23.432;2023-04-03T13:23:54;94750.97;;;7.98;100.00
41686;BME280;27370;42.764;23.432;2023-04-03T13:26:21;94748.44;;;8.11;100.00
41686;BME280;27370;42.764;23.432;2023-04-03T13:28:48;94743.16;;;8.04;100.00
41686;BME280;27370;42.764;23.432;2023-04-03T13:31:22;94743.34;;;8.17;100.00
41686;BME280;27370;42.764;23.432;2023-04-03T13:36:40;94742.13;;;7.98;100.00
41686;BME280;27370;42.764;23.432;2023-04-03T13:39:17;94725.28;;;8.14;100.00
41686;BME280;27370;42.764;23.432;2023-04-03T13:42:22;94735.25;;;8.17;100.00
41686;BME280;27370;42.764;23.432;2023-04-03T13:44:48;94728.63;;;7.98;100.00
41686;BME280;27370;42.764;23.432;2023-04-03T13:47:20;94727.34;;;8.06;100.00
41686;BME280;27370;42.764;23.432;2023-04-03T13:50:03;94735.16;;;8.01;100.00
41686;BME280;27370;42.764;23.432;2023-04-03T13:52:33;94722.25;;;7.88;100.00
41686;BME280;27370;42.764;23.432;2023-04-03T13:55:24;94716.91;;;8.08;100.00
41686;BME280;27370;42.764;23.432;2023-04-03T13:57:57;94717.50;;;7.96;100.00
41686;BME280;27370;42.764;23.432;2023-04-03T14:00:34;94722.34;;;7.81;100.00
41686;BME280;27370;42.764;23.432;2023-04-03T14:03:07;94714.03;;;7.72;100.00
41686;BME280;27370;42.764;23.432;2023-04-03T14:05:37;94709.16;;;7.63;100.00
41686;BME280;27370;42.764;23.432;2023-04-03T14:08:02;94709.34;;;7.76;100.00
41686;BME280;27370;42.764;23.432;2023-04-03T14:10:29;94715.16;;;7.75;100.00
41686;BME280;27370;42.764;23.432;2023-04-03T14:12:55;94713.81;;;7.86;100.00
41686;BME280;27370;42.764;23.432;2023-04-03T14:15:24;94704.25;;;7.82;100.00
41686;BME280;27370;42.764;23.432;2023-04-03T14:17:51;94691.38;;;7.70;100.00
41686;BME280;27370;42.764;23.432;2023-04-03T14:20:19;94692.03;;;7.77;100.00
41686;BME280;27370;42.764;23.432;2023-04-03T14:22:46;94697.06;;;7.75;100.00
41686;BME280;27370;42.764;23.432;2023-04-03T14:25:11;94698.88;;;7.82;100.00
41686;BME280;27370;42.764;23.432;2023-04-03T14:27:40;94690.03;;;7.81;100.00
41686;BME280;27370;42.764;23.432;2023-04-03T14:30:12;94694.66;;;7.81;100.00
41686;BME280;27370;42.764;23.432;2023-04-03T14:32:41;94702.44;;;7.75;100.00
41686;BME280;27370;42.764;23.432;2023-04-03T14:35:07;94699.75;;;7.75;100.00
41686;BME280;27370;42.764;23.432;2023-04-03T14:37:33;94691.72;;;7.72;100.00